Time,TemperatureF,DewpointF,PressureIn,WindDirection,WindDirectionDegrees,WindSpeedMPH,WindSpeedGustMPH,Humidity,HourlyPrecipIn,Conditions,Clouds,dailyrainin,SoftwareType,DateUTC
2013-01-17 00:02:00,10.0,7.0,-100.00,SE,135,1.0,2.0,87,-99.99,,,-99.99,,2013-01-17 08:02:00,
2013-01-17 00:10:00,11.0,8.0,-100.00,SSE,160,0.0,2.0,87,-99.99,,,-99.99,,2013-01-17 08:10:00,
2013-01-17 00:12:00,10.0,7.0,-100.00,SE,135,1.0,2.0,87,-99.99,,,-99.99,,2013-01-17 08:12:00,
2013-01-17 01:02:00,11.0,8.0,-100.00,SSE,160,0.0,2.0,87,-99.99,,,-99.99,,2013-01-17 09:02:00,
2013-01-17 02:02:00,10.0,7.0,-100.00,ESE,115,2.0,3.0,87,-99.99,,,-99.99,,2013-01-17 10:02:00,
2013-01-17 02:10:00,11.0,8.0,-100.00,East,100,1.0,2.0,87,-99.99,,,-99.99,,2013-01-17 10:10:00,
2013-01-17 02:12:00,10.0,7.0,-100.00,ESE,115,2.0,3.0,87,-99.99,,,-99.99,,2013-01-17 10:12:00,
2013-01-17 03:02:00,11.0,8.0,-100.00,East,100,1.0,2.0,87,-99.99,,,-99.99,,2013-01-17 11:02:00,
2013-01-17 03:10:00,9.0,6.0,-100.00,SE,130,2.0,2.0,87,-99.99,,,-99.99,,2013-01-17 11:10:00,
2013-01-17 04:02:00,9.0,6.0,-100.00,SE,130,2.0,2.0,87,-99.99,,,-99.99,,2013-01-17 12:02:00,
2013-01-17 05:03:00,9.0,6.0,-100.00,North,350,2.0,2.0,87,-99.99,,,-99.99,,2013-01-17 13:03:00,
2013-01-17 06:03:00,12.0,9.0,-100.00,NE,55,1.0,5.0,87,-99.99,,,-99.99,,2013-01-17 14:03:00,
2013-01-17 06:12:00,12.0,9.0,-100.00,NE,55,1.0,5.0,87,-99.99,,,-99.99,,2013-01-17 14:12:00,
2013-01-17 07:03:00,12.0,9.0,-100.00,ENE,65,2.0,3.0,87,-99.99,,,-99.99,,2013-01-17 15:03:00,
2013-01-17 07:10:00,11.0,8.0,-100.00,ENE,60,1.0,3.0,87,-99.99,,,-99.99,,2013-01-17 15:10:00,
2013-01-17 07:12:00,12.0,9.0,-100.00,ENE,65,2.0,3.0,87,-99.99,,,-99.99,,2013-01-17 15:12:00,
2013-01-17 08:02:00,11.0,8.0,-100.00,ENE,60,1.0,3.0,87,-99.99,,,-99.99,,2013-01-17 16:02:00,
2013-01-17 08:10:00,11.0,7.0,-100.00,NNE,25,2.0,2.0,83,-99.99,,,-99.99,,2013-01-17 16:10:00,
2013-01-17 09:03:00,11.0,7.0,-100.00,NNE,25,2.0,2.0,83,-99.99,,,-99.99,,2013-01-17 17:03:00,
2013-01-17 09:10:00,15.0,11.0,-100.00,NE,55,1.0,2.0,83,-99.99,,,-99.99,,2013-01-17 17:10:00,
2013-01-17 10:03:00,15.0,11.0,-100.00,NE,55,1.0,2.0,83,-99.99,,,-99.99,,2013-01-17 18:03:00,
2013-01-17 10:10:00,20.0,16.0,-100.00,NE,40,1.0,2.0,84,-99.99,,,-99.99,,2013-01-17 18:10:00,
2013-01-17 11:03:00,20.0,16.0,-100.00,NE,40,1.0,2.0,84,-99.99,,,-99.99,,2013-01-17 19:03:00,
2013-01-17 11:10:00,24.0,21.0,-100.00,West,270,2.0,2.0,88,-99.99,,,-99.99,,2013-01-17 19:10:00,
2013-01-17 12:02:00,24.0,21.0,-100.00,West,270,2.0,2.0,88,-99.99,,,-99.99,,2013-01-17 20:02:00,
2013-01-17 12:10:00,27.0,24.0,-100.00,West,280,2.0,3.0,88,-99.99,,,-99.99,,2013-01-17 20:10:00,
2013-01-17 13:02:00,27.0,24.0,-100.00,West,280,2.0,3.0,88,-99.99,,,-99.99,,2013-01-17 21:02:00,
2013-01-17 13:10:00,30.0,24.0,-100.00,North,-999,0.0,0.0,78,-99.99,,,-99.99,,2013-01-17 21:10:00,
2013-01-17 14:03:00,30.0,24.0,-100.00,North,-999,0.0,0.0,78,-99.99,,,-99.99,,2013-01-17 22:03:00,
2013-01-17 14:10:00,28.0,19.0,-100.00,ENE,70,2.0,2.0,68,-99.99,,,-99.99,,2013-01-17 22:10:00,
2013-01-17 15:02:00,28.0,19.0,-100.00,ENE,70,2.0,2.0,68,-99.99,,,-99.99,,2013-01-17 23:02:00,
2013-01-17 16:02:00,26.0,17.0,-100.00,SSE,165,3.0,3.0,68,-99.99,,,-99.99,,2013-01-18 00:02:00,
2013-01-17 16:10:00,23.0,17.0,-100.00,ENE,70,0.0,1.0,77,-99.99,,,-99.99,,2013-01-18 00:10:00,
2013-01-17 16:12:00,26.0,17.0,-100.00,SSE,165,3.0,3.0,68,-99.99,,,-99.99,,2013-01-18 00:12:00,
2013-01-17 17:02:00,23.0,17.0,-100.00,ENE,70,0.0,1.0,77,-99.99,,,-99.99,,2013-01-18 01:02:00,
2013-01-17 17:10:00,21.0,16.0,-100.00,North,-999,0.0,0.0,80,-99.99,,,-99.99,,2013-01-18 01:10:00,
2013-01-17 18:02:00,21.0,16.0,-100.00,North,-999,0.0,0.0,80,-99.99,,,-99.99,,2013-01-18 02:02:00,
2013-01-17 18:10:00,18.0,14.0,-100.00,SSE,155,1.0,3.0,84,-99.99,,,-99.99,,2013-01-18 02:10:00,
2013-01-17 19:02:00,18.0,14.0,-100.00,SSE,155,1.0,3.0,84,-99.99,,,-99.99,,2013-01-18 03:02:00,
2013-01-17 20:02:00,18.0,14.0,-100.00,South,175,2.0,2.0,84,-99.99,,,-99.99,,2013-01-18 04:02:00,
2013-01-17 20:10:00,17.0,13.0,-100.00,North,10,0.0,2.0,83,-99.99,,,-99.99,,2013-01-18 04:10:00,
2013-01-17 20:12:00,18.0,14.0,-100.00,South,175,2.0,2.0,84,-99.99,,,-99.99,,2013-01-18 04:12:00,
2013-01-17 21:03:00,17.0,13.0,-100.00,North,10,0.0,2.0,83,-99.99,,,-99.99,,2013-01-18 05:03:00,
2013-01-17 21:10:00,17.0,13.0,-100.00,NW,320,2.0,2.0,83,-99.99,,,-99.99,,2013-01-18 05:10:00,
2013-01-17 22:02:00,17.0,13.0,-100.00,NW,320,2.0,2.0,83,-99.99,,,-99.99,,2013-01-18 06:02:00,
2013-01-17 23:02:00,15.0,11.0,-100.00,SE,135,3.0,5.0,83,-99.99,,,-99.99,,2013-01-18 07:02:00,
2013-01-17 23:10:00,15.0,12.0,-100.00,SE,145,3.0,3.0,87,-99.99,,,-99.99,,2013-01-18 07:10:00,
2013-01-17 23:12:00,15.0,11.0,-100.00,SE,135,3.0,5.0,83,-99.99,,,-99.99,,2013-01-18 07:12:00,